W7KKE-3 Weather Reports


Display with metric or nautical units.
time (UTC)temp
F
wind
direction
speed
MPH
gust
MPH
rain 1hr
in
rain 24hr
in
rain mn
in
humidity
%
barometer
mb
20140423114328 50 183 6.0 20.0 0.04 0.49 0.17 92 1014.8
20140423113828 50 242 9.0 20.0 0.04 0.49 0.17 92 1014.9
20140423113328 51 156 7.0 18.0 0.04 0.49 0.17 92 1014.9
20140423112828 50 173 5.0 18.0 0.04 0.49 0.16 92 1014.8
20140423112328 50 144 7.0 18.0 0.04 0.49 0.16 92 1014.8
20140423111828 50 131 6.0 18.0 0.04 0.49 0.16 93 1015.0
20140423111328 50 176 6.0 24.0 0.04 0.49 0.16 92 1015.0
20140423110829 50 246 8.0 24.0 0.04 0.49 0.16 92 1015.0
20140423110328 50 161 7.0 24.0 0.03 0.45 0.16 92 1015.0
20140423105828 50 176 12.0 15.0 0.03 0.45 0.15 92 1015.0
20140423105328 50 128 5.0 15.0 0.04 0.45 0.15 92 1014.8
20140423104828 50 211 5.0 21.0 0.04 0.45 0.15 92 1014.9
20140423104328 50 140 8.0 21.0 0.07 0.45 0.14 92 1015.1
20140423103828 50 161 8.0 21.0 0.07 0.45 0.14 92 1015.1
20140423103328 50 168 7.0 16.0 0.07 0.45 0.13 92 1015.1
20140423102828 50 151 9.0 16.0 0.07 0.45 0.13 92 1015.3
20140423102328 50 197 8.0 16.0 0.09 0.45 0.12 92 1015.2
20140423101828 50 245 6.0 17.0 0.09 0.45 0.12 92 1015.1
20140423101329 50 203 8.0 17.0 0.09 0.45 0.12 92 1015.1
20140423100828 50 168 8.0 17.0 0.09 0.45 0.12 92 1015.1
20140423100328 50 249 8.0 16.0 0.09 0.36 0.12 92 1015.1
20140423095828 49 212 8.0 16.0 0.09 0.36 0.12 92 1015.1
20140423095328 49 282 8.0 16.0 0.07 0.36 0.11 92 1015.1
20140423094828 49 127 6.0 16.0 0.07 0.36 0.11 92 1015.2
20140423094328 49 165 1.0 16.0 0.05 0.36 0.10 91 1015.0
20140423093828 50 152 6.0 16.0 0.05 0.36 0.07 91 1015.1
20140423093328 49 134 7.0 16.0 0.04 0.36 0.06 91 1015.1
20140423092828 49 225 5.0 16.0 0.04 0.36 0.06 90 1015.2
20140423092329 49 238 6.0 12.0 0.02 0.36 0.04 90 1015.4
20140423091828 49 243 1.0 12.0 0.02 0.36 0.04 90 1015.2
20140423091328 49 204 7.0 12.0 0.02 0.36 0.03 90 1015.1
20140423090828 49 242 7.0 12.0 0.02 0.36 0.03 90 1015.2
20140423090328 49 194 6.0 10.0 0.02 0.34 0.03 90 1015.3
20140423085828 49 254 6.0 19.0 0.02 0.34 0.03 90 1015.3
20140423085328 49 257 5.0 19.0 0.02 0.34 0.03 89 1015.2
20140423084828 49 224 10.0 19.0 0.02 0.34 0.03 89 1015.4
20140423084328 50 235 12.0 17.0 0.00 0.34 0.03 89 1015.5
20140423083828 50 159 4.0 17.0 0.00 0.34 0.03 89 1015.5
20140423083328 50 144 9.0 18.0 0.00 0.34 0.01 89 1015.3
20140423082828 49 214 9.0 18.0 0.00 0.34 0.01 89 1015.3
20140423082328 50 245 9.0 18.0 0.00 0.34 0.01 89 1015.3
20140423081828 50 197 7.0 17.0 0.00 0.34 0.01 89 1015.3
20140423081328 50 214 8.0 20.0 0.01 0.34 0.01 89 1015.3
20140423080829 50 140 8.0 20.0 0.01 0.34 0.01 89 1015.2
20140423080328 50 172 10.0 20.0 0.01 0.42 0.01 89 1015.1
20140423075828 50 236 10.0 21.0 0.01 0.42 0.01 89 1015.1
20140423075328 50 226 7.0 21.0 0.01 0.42 0.01 88 1015.2
20140423074828 50 210 6.0 21.0 0.01 0.42 0.01 88 1015.0
20140423074328 50 201 10.0 18.0 0.02 0.42 0.01 88 1015.0
20140423073828 50 225 11.0 17.0 0.02 0.42 0.01 88 1015.0
20140423073328 50 219 4.0 17.0 0.02 0.42 0.01 89 1015.0
20140423072828 50 222 12.0 17.0 0.02 0.42 0.01 89 1015.0
20140423072328 50 207 6.0 17.0 0.02 0.42 0.01 89 1015.0
20140423071828 50 198 8.0 15.0 0.02 0.42 0.01 89 1015.0
20140423071328 50 243 9.0 18.0 0.01 0.42 0.01 90 1014.9
20140423070828 50 228 9.0 18.0 0.01 0.42 0.00 90 1015.1
20140423065828 50 226 5.0 14.0 0.01 0.50 0.42 90 1014.9
20140423065328 50 204 8.0 14.0 0.01 0.50 0.42 89 1014.9
20140423064828 50 239 9.0 20.0 0.01 0.50 0.42 89 1014.8
20140423064328 50 221 7.0 20.0 0.00 0.50 0.42 87 1014.8
20140423063828 50 212 9.0 20.0 0.00 0.50 0.41 89 1014.9
20140423063328 51 127 7.0 20.0 0.00 0.50 0.41 89 1014.7
20140423062828 51 162 6.0 20.0 0.00 0.50 0.41 89 1014.6
20140423062328 50 161 7.0 20.0 0.00 0.50 0.41 88 1014.6
20140423061828 50 165 9.0 18.0 0.00 0.50 0.41 88 1014.6
20140423061328 50 138 10.0 18.0 0.00 0.50 0.41 89 1014.6
20140423060828 51 147 7.0 18.0 0.00 0.50 0.41 88 1014.6
20140423060328 50 142 9.0 18.0 0.00 0.51 0.41 89 1014.6
20140423055828 50 138 9.0 18.0 0.00 0.51 0.41 89 1014.6
20140423055328 51 175 8.0 18.0 0.01 0.51 0.41 89 1014.6
20140423054828 50 155 2.0 14.0 0.01 0.51 0.41 88 1014.5
20140423054328 50 222 5.0 17.0 0.01 0.51 0.41 89 1014.6
20140423053828 50 226 9.0 17.0 0.01 0.51 0.41 89 1014.6
20140423053328 50 232 4.0 17.0 0.04 0.51 0.41 89 1014.6
20140423052828 50 222 7.0 16.0 0.04 0.51 0.41 90 1014.6
20140423052328 50 225 7.0 16.0 0.05 0.51 0.41 90 1014.6
20140423051828 50 235 8.0 16.0 0.05 0.51 0.41 90 1014.6
20140423051328 50 152 7.0 18.0 0.06 0.51 0.41 90 1014.6
20140423050828 50 203 8.0 18.0 0.06 0.51 0.41 90 1014.6
20140423050328 49 225 8.0 18.0 0.06 0.49 0.41 90 1014.7
20140423045828 50 196 10.0 19.0 0.06 0.49 0.41 90 1014.6
20140423045328 50 190 7.0 19.0 0.07 0.49 0.40 89 1014.5
20140423044828 50 247 9.0 19.0 0.07 0.49 0.40 89 1014.5
20140423044328 51 186 10.0 17.0 0.07 0.49 0.40 90 1014.4
20140423043828 51 242 5.0 17.0 0.07 0.49 0.40 90 1014.3
20140423043328 50 163 5.0 16.0 0.04 0.49 0.39 90 1014.2
20140423042828 50 245 5.0 16.0 0.04 0.49 0.39 90 1014.2
20140423042328 51 245 6.0 16.0 0.04 0.49 0.37 90 1014.4
20140423041328 51 180 6.0 19.0 0.04 0.49 0.36 90 1014.4
20140423040828 50 175 5.0 19.0 0.04 0.49 0.36 90 1014.4
20140423040328 50 162 8.0 19.0 0.05 0.49 0.35 90 1014.4
20140423035828 50 140 6.0 15.0 0.05 0.49 0.35 89 1014.3
20140423035329 50 170 9.0 23.0 0.06 0.49 0.35 89 1014.1
20140423034828 50 137 11.0 23.0 0.06 0.49 0.34 89 1014.3
20140423034328 50 154 9.0 23.0 0.06 0.49 0.33 89 1014.3
20140423033828 50 165 8.0 19.0 0.06 0.49 0.33 89 1014.3
20140423033328 50 147 10.0 19.0 0.06 0.49 0.33 89 1014.4
20140423032828 50 155 11.0 19.0 0.06 0.49 0.33 89 1014.4
20140423032328 51 207 11.0 16.0 0.05 0.49 0.33 89 1014.3
20140423031828 50 221 8.0 14.0 0.05 0.49 0.32 89 1014.2
20140423031328 50 145 4.0 14.0 0.05 0.49 0.32 89 1014.2
20140423030828 50 166 6.0 14.0 0.05 0.49 0.31 88 1014.3
20140423030328 50 135 8.0 19.0 0.06 0.47 0.31 88 1014.3
20140423025828 50 155 9.0 19.0 0.06 0.47 0.31 87 1014.4
20140423025328 51 145 9.0 19.0 0.04 0.47 0.30 88 1014.6
20140423024828 50 165 8.0 22.0 0.04 0.47 0.27 88 1014.3
20140423024328 51 155 8.0 22.0 0.06 0.47 0.27 88 1014.4
20140423023828 51 217 8.0 22.0 0.06 0.47 0.27 88 1014.4
20140423023328 50 238 11.0 19.0 0.08 0.47 0.27 88 1014.5
20140423022828 50 224 6.0 19.0 0.08 0.47 0.27 88 1014.6
20140423022328 50 247 9.0 19.0 0.08 0.47 0.27 88 1014.5
20140423021828 50 196 9.0 19.0 0.08 0.47 0.27 88 1014.7
20140423021328 50 222 10.0 16.0 0.10 0.47 0.27 88 1014.8
20140423020828 50 207 11.0 22.0 0.10 0.47 0.27 88 1014.9
20140423020328 50 232 10.0 22.0 0.10 0.44 0.26 87 1015.0
20140423015828 50 177 12.0 22.0 0.10 0.44 0.25 86 1015.1
20140423015328 50 217 8.0 21.0 0.10 0.44 0.24 87 1015.0
20140423014828 50 235 7.0 21.0 0.10 0.44 0.23 86 1014.9
20140423014328 50 240 10.0 29.0 0.08 0.44 0.23 87 1015.2
20140423013828 51 137 9.0 29.0 0.08 0.44 0.22 86 1015.2
20140423012828 51 232 11.0 20.0 0.06 0.44 0.20 86 1015.1
20140423012328 50 240 10.0 20.0 0.06 0.44 0.19 86 1015.1
20140423011828 50 226 8.0 20.0 0.06 0.44 0.19 86 1015.3
20140423011328 50 228 10.0 29.0 0.03 0.44 0.19 84 1015.4
20140423010828 50 211 12.0 29.0 0.03 0.44 0.18 84 1015.7
20140423010328 52 214 16.0 29.0 0.03 0.47 0.15 83 1015.8
20140423005328 52 247 11.0 19.0 0.02 0.47 0.13 82 1015.5
20140423004828 52 263 7.0 19.0 0.02 0.47 0.13 83 1015.5
20140423004328 52 148 7.0 21.0 0.02 0.47 0.13 83 1015.4
20140423003828 52 154 10.0 21.0 0.02 0.47 0.13 83 1015.3
20140423003328 51 165 10.0 21.0 0.02 0.47 0.13 83 1015.3
20140423002828 51 147 8.0 15.0 0.02 0.47 0.13 84 1015.4
20140423002328 51 138 6.0 15.0 0.02 0.47 0.13 84 1015.4
20140423001828 51 152 6.0 26.0 0.02 0.47 0.13 84 1015.4
20140423001328 51 138 10.0 26.0 0.02 0.47 0.13 82 1015.5
20140423000828 52 235 9.0 26.0 0.02 0.47 0.13 81 1015.5
20140423000328 53 177 11.0 24.0 0.00 0.52 0.12 82 1015.8
20140422235828 53 148 9.0 24.0 0.00 0.52 0.11 81 1015.3
20140422235328 53 172 12.0 24.0 0.00 0.52 0.11 81 1015.4
20140422234828 53 121 13.0 27.0 0.00 0.52 0.11 80 1015.5
20140422234328 53 145 12.0 27.0 0.00 0.52 0.11 81 1015.4
20140422233828 53 190 13.0 27.0 0.00 0.52 0.11 81 1015.4
20140422233328 53 187 14.0 22.0 0.00 0.52 0.11 80 1015.6
20140422232828 53 189 11.0 21.0 0.00 0.52 0.11 81 1015.4
20140422232328 54 166 9.0 21.0 0.00 0.52 0.11 80 1015.4
20140422231828 54 175 12.0 21.0 0.00 0.52 0.11 79 1015.4
20140422231328 54 177 12.0 21.0 0.00 0.52 0.11 76 1015.5
20140422230828 55 142 7.0 15.0 0.00 0.52 0.11 74 1015.5
20140422230328 55 203 9.0 15.0 0.00 0.54 0.11 75 1015.6
20140422225828 55 152 8.0 29.0 0.00 0.54 0.11 76 1015.6
20140422225328 55 147 7.0 29.0 0.00 0.54 0.11 76 1015.7
20140422224328 54 161 12.0 21.0 0.00 0.54 0.11 75 1015.8
20140422223828 54 142 10.0 22.0 0.00 0.54 0.11 74 1015.9
20140422223328 55 134 13.0 22.0 0.00 0.54 0.11 73 1015.9
20140422222828 55 156 5.0 22.0 0.00 0.54 0.11 74 1015.8
20140422222328 55 165 7.0 23.0 0.00 0.54 0.11 74 1015.9
20140422221828 55 225 7.0 23.0 0.00 0.54 0.11 73 1015.9
20140422221328 55 180 11.0 23.0 0.00 0.54 0.11 74 1015.9
20140422220828 55 176 9.0 18.0 0.00 0.54 0.11 74 1015.9
20140422220328 55 179 9.0 22.0 0.00 0.54 0.11 74 1015.9
20140422215828 55 179 9.0 22.0 0.00 0.54 0.11 73 1016.0
20140422215328 56 161 14.0 22.0 0.00 0.54 0.11 72 1016.0
20140422214828 55 211 8.0 22.0 0.00 0.54 0.11 72 1016.0
20140422214328 56 116 11.0 19.0 0.00 0.54 0.11 71 1015.9
20140422213828 56 121 8.0 19.0 0.00 0.54 0.11 73 1015.9
20140422213328 56 151 10.0 19.0 0.00 0.54 0.11 74 1015.9
20140422212828 56 152 8.0 22.0 0.00 0.54 0.11 73 1015.8
20140422212328 56 155 11.0 22.0 0.00 0.54 0.11 72 1015.7
20140422211828 56 141 8.0 22.0 0.00 0.54 0.11 74 1015.6
20140422211328 55 159 11.0 20.0 0.00 0.54 0.11 74 1015.6
20140422210828 55 144 8.0 20.0 0.00 0.54 0.11 75 1015.6
20140422210328 55 154 10.0 20.0 0.00 0.54 0.11 73 1015.6
20140422205828 55 148 9.0 19.0 0.00 0.54 0.11 71 1015.5
20140422205328 56 138 11.0 19.0 0.00 0.54 0.11 72 1015.6
20140422204828 55 121 8.0 19.0 0.00 0.54 0.11 72 1015.6
20140422204328 55 135 11.0 20.0 0.00 0.54 0.11 73 1015.6
20140422203827 55 165 10.0 20.0 0.00 0.54 0.11 73 1015.5
20140422203327 55 175 8.0 20.0 0.02 0.54 0.11 75 1015.4
20140422202828 55 152 9.0 18.0 0.02 0.54 0.11 74 1015.5
20140422202328 55 116 9.0 18.0 0.02 0.54 0.11 74 1015.4
20140422201828 54 151 9.0 18.0 0.02 0.54 0.11 74 1015.4
20140422201328 54 133 13.0 21.0 0.02 0.54 0.11 75 1015.5
20140422200828 53 138 9.0 21.0 0.02 0.54 0.11 76 1015.5
20140422200328 53 165 12.0 21.0 0.02 0.52 0.11 76 1015.5
20140422195827 52 152 10.0 20.0 0.02 0.52 0.11 78 1015.6
20140422195327 52 109 12.0 20.0 0.02 0.52 0.11 80 1015.6
20140422194828 52 131 5.0 20.0 0.02 0.52 0.11 79 1015.6
20140422194327 52 152 10.0 20.0 0.02 0.52 0.11 80 1015.7
20140422193828 51 177 9.0 10.0 0.02 0.52 0.11 79 1015.7
20140422193327 52 238 4.0 24.0 0.00 0.52 0.11 78 1015.6
20140422192827 52 151 5.0 24.0 0.00 0.52 0.11 77 1015.7
20140422192328 53 147 9.0 24.0 0.00 0.52 0.09 74 1015.8
20140422191827 53 137 10.0 19.0 0.00 0.52 0.09 72 1015.8
20140422191327 54 137 13.0 19.0 0.00 0.52 0.09 70 1015.8
20140422190828 55 148 10.0 19.0 0.00 0.52 0.09 69 1015.8
20140422190327 56 155 6.0 19.0 0.00 0.52 0.09 69 1015.6
20140422185827 56 145 10.0 19.0 0.00 0.52 0.09 69 1015.6
20140422185327 56 158 5.0 19.0 0.00 0.52 0.09 69 1015.5
20140422184827 56 161 8.0 18.0 0.00 0.52 0.09 66 1015.6
20140422184327 56 156 10.0 18.0 0.00 0.52 0.09 66 1015.5
20140422183827 57 155 8.0 15.0 0.00 0.52 0.09 67 1015.5
20140422183327 57 168 6.0 15.0 0.00 0.52 0.09 67 1015.5
20140422182827 58 172 8.0 14.0 0.00 0.52 0.09 66 1015.5
20140422182328 57 154 8.0 16.0 0.00 0.52 0.09 66 1015.4
20140422181827 58 147 4.0 16.0 0.00 0.52 0.09 66 1015.4
20140422181327 57 148 7.0 16.0 0.00 0.52 0.09 66 1015.3
20140422180827 57 156 9.0 18.0 0.00 0.52 0.09 67 1015.3
20140422180328 57 158 7.0 18.0 0.00 0.52 0.09 67 1015.2
20140422175827 58 163 6.0 18.0 0.00 0.52 0.09 65 1015.3
20140422175327 59 166 11.0 14.0 0.00 0.52 0.09 64 1015.3
20140422174827 59 198 5.0 11.0 0.00 0.52 0.09 66 1015.3
20140422174327 59 128 3.0 11.0 0.00 0.52 0.09 67 1015.4
20140422173827 58 189 3.0 10.0 0.00 0.52 0.09 67 1015.3
20140422173327 58 218 7.0 13.0 0.00 0.52 0.09 69 1015.3
20140422172827 57 217 5.0 13.0 0.00 0.52 0.09 71 1015.3
20140422172327 57 165 5.0 13.0 0.00 0.52 0.09 71 1015.3
20140422171827 56 249 4.0 12.0 0.00 0.52 0.09 70 1015.3
20140422171327 56 208 2.0 11.0 0.00 0.52 0.09 72 1015.4
20140422170827 56 233 4.0 11.0 0.00 0.52 0.09 74 1015.4
20140422170327 55 233 3.0 11.0 0.00 0.52 0.09 74 1015.4
20140422165827 55 233 3.0 11.0 0.00 0.52 0.09 74 1015.4
20140422165328 54 239 4.0 11.0 0.00 0.52 0.09 75 1015.4
20140422164827 54 235 7.0 9.0 0.00 0.52 0.09 76 1015.4
20140422164520 54 235 8.0 9.0 0.00 0.52 0.09 76 1015.4
20140422164020 54 212 5.0 12.0 0.00 0.52 0.09 76 1015.4
20140422163520 54 214 2.0 12.0 0.00 0.52 0.09 76 1015.4
20140422163020 54 208 5.0 12.0 0.00 0.52 0.09 77 1015.5
20140422162520 53 215 3.0 10.0 0.00 0.52 0.09 77 1015.5
20140422162020 53 162 4.0 9.0 0.00 0.52 0.09 78 1015.5
20140422161520 52 166 6.0 12.0 0.00 0.52 0.09 79 1015.6
20140422161020 52 222 3.0 12.0 0.00 0.52 0.09 79 1015.6
20140422160520 52 245 2.0 12.0 0.00 0.52 0.09 79 1015.6
20140422160020 52 242 4.0 10.0 0.00 0.52 0.09 79 1015.5
20140422155520 52 204 6.0 8.0 0.00 0.52 0.09 80 1015.6
20140422155020 52 232 5.0 9.0 0.00 0.52 0.09 80 1015.5
20140422154520 52 260 3.0 9.0 0.00 0.52 0.09 80 1015.5
20140422154021 52 212 4.0 9.0 0.00 0.52 0.09 79 1015.5
20140422153520 52 228 6.0 8.0 0.00 0.52 0.09 79 1015.5
20140422153020 52 274 4.0 9.0 0.00 0.52 0.09 79 1015.6
20140422152520 52 257 3.0 9.0 0.00 0.52 0.09 80 1015.6
20140422152020 51 273 3.0 9.0 0.00 0.52 0.09 80 1015.6
20140422151521 50 277 4.0 7.0 0.00 0.52 0.09 83 1015.6
20140422151020 50 246 4.0 10.0 0.00 0.52 0.09 83 1015.6
20140422150520 49 236 5.0 10.0 0.00 0.52 0.09 83 1015.6
20140422150020 50 268 5.0 10.0 0.00 0.52 0.09 83 1015.6
20140422145520 49 275 6.0 8.0 0.00 0.52 0.09 83 1015.7
20140422145020 49 264 5.0 10.0 0.00 0.52 0.09 83 1015.8
20140422144520 49 256 5.0 10.0 0.00 0.52 0.09 84 1015.7
20140422144020 49 271 6.0 10.0 0.00 0.52 0.09 84 1015.8
20140422143521 49 291 6.0 9.0 0.00 0.52 0.09 84 1015.7
20140422142520 48 277 3.0 9.0 0.00 0.52 0.09 84 1015.6
20140422142020 48 275 6.0 9.0 0.00 0.52 0.09 84 1015.6
20140422141520 48 278 5.0 10.0 0.00 0.52 0.09 84 1015.6
20140422141020 48 288 5.0 10.0 0.00 0.52 0.09 84 1015.6
20140422140520 48 284 4.0 10.0 0.00 0.52 0.09 84 1015.6
20140422140021 48 254 5.0 10.0 0.00 0.52 0.09 85 1015.6
20140422135520 48 280 4.0 10.0 0.00 0.52 0.09 85 1015.6
20140422135020 48 268 7.0 13.0 0.00 0.52 0.09 85 1015.5
20140422134520 48 274 7.0 13.0 0.00 0.52 0.09 85 1015.5
20140422134020 47 316 6.0 13.0 0.00 0.52 0.09 84 1015.5
20140422133520 48 281 9.0 13.0 0.00 0.52 0.09 84 1015.4
20140422133020 48 291 9.0 14.0 0.00 0.52 0.09 84 1015.4
20140422132520 48 338 6.0 14.0 0.00 0.52 0.09 84 1015.3
20140422132020 48 274 8.0 14.0 0.00 0.52 0.09 84 1015.2
20140422131553 48 268 10.0 15.0 0.00 0.52 0.09 85 1015.2
20140422131520 48 268 10.0 15.0 0.00 0.52 0.09 85 1015.2
20140422131221 48 266 7.0 15.0 0.00 0.52 0.09 85 1015.2
20140422131020 48 266 7.0 15.0 0.00 0.52 0.09 85 1015.2
20140422130704 48 285 9.0 15.0 0.00 0.52 0.09 85 1015.2
20140422130520 48 285 9.0 15.0 0.00 0.52 0.09 85 1015.2
20140422130054 48 298 9.0 12.0 0.00 0.52 0.09 86 1015.1
20140422130020 48 298 9.0 12.0 0.00 0.52 0.09 86 1015.1
20140422125520 48 274 7.0 12.0 0.00 0.52 0.09 86 1015.2
20140422125020 48 278 7.0 12.0 0.00 0.52 0.09 85 1015.2
20140422124520 48 302 9.0 14.0 0.00 0.52 0.09 85 1015.2
20140422124020 48 273 9.0 14.0 0.00 0.52 0.09 85 1015.1
20140422123520 48 284 7.0 14.0 0.00 0.52 0.09 85 1015.1
20140422123020 47 303 9.0 13.0 0.00 0.52 0.09 85 1015.0
20140422122520 48 322 8.0 16.0 0.00 0.52 0.09 85 1015.0
20140422122020 48 285 10.0 16.0 0.00 0.52 0.09 85 1014.9
20140422121520 47 289 8.0 16.0 0.00 0.52 0.09 85 1014.9
20140422121020 48 305 9.0 15.0 0.00 0.52 0.09 85 1015.0
20140422120520 48 302 10.0 15.0 0.00 0.52 0.09 85 1015.0
20140422120021 48 308 10.0 15.0 0.00 0.52 0.09 86 1015.0
20140422115520 48 273 10.0 18.0 0.00 0.52 0.09 86 1015.0
20140422115020 48 315 9.0 18.0 0.00 0.52 0.09 86 1014.9